createdAt,value
2022-08-05T00:00:00.612Z,76.10
2022-08-05T00:02:28.644Z,75.68
2022-08-05T00:04:58.315Z,75.98
2022-08-05T00:07:59.663Z,76.28
2022-08-05T00:10:14.417Z,76.25
2022-08-05T00:12:55.652Z,76.67
2022-08-05T00:15:57.656Z,76.54
2022-08-05T00:18:21.654Z,76.07
2022-08-05T00:20:50.686Z,76.33
2022-08-05T00:23:44.415Z,76.29
2022-08-05T00:26:07.431Z,76.70
2022-08-05T00:28:38.416Z,76.52
2022-08-05T00:31:08.948Z,76.75
2022-08-05T00:34:54.676Z,76.75
2022-08-05T00:37:13.024Z,76.60
2022-08-05T00:39:15.039Z,76.46
2022-08-05T00:41:55.141Z,76.47
2022-08-05T00:44:30.575Z,76.67
2022-08-05T00:47:02.139Z,76.92
2022-08-05T00:49:32.695Z,77.50
2022-08-05T00:52:01.023Z,77.55
2022-08-05T00:54:30.212Z,78.46
2022-08-05T00:56:58.464Z,78.33
2022-08-05T00:59:27.467Z,78.33
2022-08-05T01:02:12.031Z,78.28
2022-08-05T01:04:42.190Z,78.49
2022-08-05T01:07:13.734Z,78.24
2022-08-05T01:09:42.380Z,78.44
2022-08-05T01:12:18.597Z,78.38
2022-08-05T01:14:52.873Z,77.99
2022-08-05T01:17:27.809Z,78.12
2022-08-05T01:20:07.272Z,77.63
2022-08-05T01:22:47.166Z,77.76
2022-08-05T01:25:53.519Z,77.81
2022-08-05T01:28:32.378Z,77.46
2022-08-05T01:31:03.503Z,77.39
2022-08-05T01:33:35.981Z,77.66
2022-08-05T01:36:13.126Z,78.14
2022-08-05T01:38:48.505Z,78.26
2022-08-05T01:41:21.864Z,77.85
2022-08-05T01:43:53.300Z,77.56
2022-08-05T01:46:42.238Z,77.65
2022-08-05T01:49:24.299Z,77.85
2022-08-05T01:51:58.453Z,77.97
2022-08-05T01:54:31.047Z,77.56
2022-08-05T01:58:10.981Z,77.64
2022-08-05T01:59:53.693Z,77.95
2022-08-05T02:02:28.135Z,78.05
2022-08-05T02:05:01.502Z,77.94
2022-08-05T02:07:33.657Z,78.56
2022-08-05T02:10:03.205Z,78.68
2022-08-05T02:12:37.278Z,78.81
2022-08-05T02:15:12.505Z,79.26
2022-08-05T02:18:27.964Z,78.89
2022-08-05T02:20:44.649Z,79.17
2022-08-05T02:23:19.635Z,79.62
2022-08-05T02:25:50.701Z,79.05
2022-08-05T02:28:28.843Z,79.18
2022-08-05T02:31:07.690Z,79.40
2022-08-05T02:33:48.534Z,79.81
2022-08-05T02:36:20.383Z,80.00
2022-08-05T02:38:53.215Z,80.23
2022-08-05T02:41:28.611Z,80.23
2022-08-05T02:44:11.283Z,80.42
2022-08-05T02:46:58.836Z,80.71
2022-08-05T02:49:35.974Z,80.71
2022-08-05T02:52:09.104Z,81.09
2022-08-05T02:54:41.605Z,81.25
2022-08-05T02:58:12.160Z,81.08
2022-08-05T03:00:03.149Z,81.82
2022-08-05T03:02:36.333Z,82.27
2022-08-05T03:05:06.029Z,81.66
2022-08-05T03:08:00.116Z,81.57
2022-08-05T03:10:25.137Z,81.35
2022-08-05T03:12:53.847Z,81.67
2022-08-05T03:15:23.711Z,81.72
2022-08-05T03:17:57.611Z,81.48
2022-08-05T03:20:26.354Z,81.81
2022-08-05T03:22:57.964Z,82.55
2022-08-05T03:25:32.710Z,83.23
2022-08-05T03:28:03.398Z,83.22
2022-08-05T03:30:34.102Z,82.94
2022-08-05T03:33:07.600Z,82.94
2022-08-05T03:35:41.013Z,83.21
2022-08-05T03:38:12.153Z,82.14
2022-08-05T03:40:41.716Z,82.96
2022-08-05T03:43:59.131Z,83.43
2022-08-05T03:46:02.362Z,82.76
2022-08-05T03:48:35.221Z,82.46
2022-08-05T03:52:49.027Z,83.07
2022-08-05T03:55:53.358Z,82.65
2022-08-05T03:56:58.933Z,82.35
2022-08-05T03:59:46.947Z,82.43
2022-08-05T04:02:17.575Z,82.40
2022-08-05T04:05:09.743Z,81.74
2022-08-05T04:07:53.559Z,81.89
2022-08-05T04:10:28.177Z,81.91
2022-08-05T04:12:59.626Z,81.17
2022-08-05T04:15:32.793Z,78.90
2022-08-05T04:18:03.042Z,77.39
2022-08-05T04:20:32.120Z,75.47
2022-08-05T04:23:01.283Z,73.56
2022-08-05T04:25:57.403Z,72.18
2022-08-05T04:28:17.121Z,70.50
2022-08-05T04:30:45.134Z,70.01
2022-08-05T04:33:14.126Z,68.60
2022-08-05T04:36:09.525Z,67.78
2022-08-05T04:38:39.487Z,67.11
2022-08-05T04:41:10.158Z,66.68
2022-08-05T04:43:40.681Z,67.56
2022-08-05T04:46:28.491Z,67.28
2022-08-05T04:48:58.770Z,66.75
2022-08-05T04:51:30.591Z,66.29
2022-08-05T04:53:58.722Z,67.39
2022-08-05T04:56:34.390Z,66.25
2022-08-05T04:59:17.464Z,66.40
2022-08-05T05:02:07.982Z,65.93
2022-08-05T05:04:43.846Z,65.41
2022-08-05T05:07:21.174Z,64.95
2022-08-05T05:09:52.092Z,64.80
2022-08-05T05:12:22.213Z,63.40
2022-08-05T05:14:51.313Z,63.72
2022-08-05T05:17:23.957Z,63.51
2022-08-05T05:19:54.841Z,63.88
2022-08-05T05:22:26.333Z,63.49
2022-08-05T05:24:56.788Z,62.94
2022-08-05T05:27:41.527Z,62.62
2022-08-05T05:30:15.491Z,62.92
2022-08-05T05:32:56.618Z,63.02
2022-08-05T05:35:25.092Z,62.80
2022-08-05T05:37:59.771Z,62.52
2022-08-05T05:40:31.451Z,61.46
2022-08-05T05:43:00.777Z,62.67
2022-08-05T05:45:30.445Z,61.89
2022-08-05T05:48:06.781Z,61.22
2022-08-05T05:50:44.062Z,60.06
2022-08-05T05:53:20.764Z,59.43
2022-08-05T05:55:51.619Z,59.58
2022-08-05T05:58:30.236Z,59.35
2022-08-05T06:01:04.874Z,60.18
2022-08-05T06:04:00.961Z,59.08
2022-08-05T06:06:31.072Z,60.37
2022-08-05T06:09:03.856Z,61.33
2022-08-05T06:11:31.988Z,59.95
2022-08-05T06:14:00.673Z,60.54
2022-08-05T06:16:36.790Z,61.47
2022-08-05T06:19:07.293Z,61.66
2022-08-05T06:21:38.033Z,61.67
2022-08-05T06:24:11.969Z,61.39
2022-08-05T06:26:51.328Z,61.78
2022-08-05T06:29:42.861Z,62.38
2022-08-05T06:32:20.912Z,60.88
2022-08-05T06:34:56.104Z,61.72
2022-08-05T06:37:57.526Z,60.83
2022-08-05T06:40:18.581Z,59.78
2022-08-05T06:42:52.147Z,60.81
2022-08-05T06:45:43.947Z,61.78
2022-08-05T06:48:47.245Z,62.15
2022-08-05T06:51:00.179Z,61.71
2022-08-05T06:53:29.147Z,61.97
2022-08-05T06:56:03.427Z,61.99
2022-08-05T06:58:36.535Z,62.42
2022-08-05T07:01:06.908Z,62.33
2022-08-05T07:03:35.529Z,61.54
2022-08-05T07:06:05.946Z,62.83
2022-08-05T07:08:42.824Z,63.55
2022-08-05T07:11:15.071Z,63.75
2022-08-05T07:14:01.102Z,63.46
2022-08-05T07:18:02.279Z,62.98
2022-08-05T07:22:28.154Z,62.24
2022-08-05T07:24:58.259Z,62.86
2022-08-05T07:27:57.304Z,62.70
2022-08-05T07:30:24.008Z,62.31
2022-08-05T07:32:56.166Z,62.70
2022-08-05T07:36:03.942Z,62.71
2022-08-05T07:38:32.850Z,62.81
2022-08-05T07:41:16.757Z,63.56
2022-08-05T07:43:51.755Z,64.18
2022-08-05T07:46:25.080Z,63.76
2022-08-05T07:49:02.006Z,63.81
2022-08-05T07:51:40.373Z,63.59
2022-08-05T07:54:16.221Z,62.86
2022-08-05T07:57:01.973Z,62.06
2022-08-05T07:59:39.800Z,62.54
2022-08-05T08:02:16.168Z,61.46
2022-08-05T08:04:45.871Z,60.40
2022-08-05T08:07:15.205Z,59.26
2022-08-05T08:09:52.273Z,59.23
2022-08-05T08:12:37.283Z,58.90
2022-08-05T08:15:15.424Z,58.57
2022-08-05T08:17:46.053Z,59.47
2022-08-05T08:20:43.194Z,59.52
2022-08-05T08:23:08.012Z,59.82
2022-08-05T08:26:00.870Z,60.35
2022-08-05T08:28:36.746Z,59.73
2022-08-05T08:31:15.101Z,58.70
2022-08-05T08:33:45.604Z,58.53
2022-08-05T08:36:52.510Z,57.48
2022-08-05T08:39:02.557Z,57.53
2022-08-05T08:41:51.873Z,56.83
2022-08-05T08:45:16.625Z,57.22
2022-08-05T08:47:21.944Z,55.23
2022-08-05T08:50:30.710Z,55.13
2022-08-05T08:52:55.886Z,53.23
2022-08-05T08:56:02.703Z,52.64
2022-08-05T08:58:13.293Z,52.07
2022-08-05T09:00:43.219Z,50.23
2022-08-05T09:03:16.088Z,50.71
2022-08-05T09:06:07.746Z,50.25
2022-08-05T09:08:40.320Z,50.18
2022-08-05T09:11:12.119Z,50.33
2022-08-05T09:14:10.344Z,49.09
2022-08-05T09:16:31.917Z,48.60
2022-08-05T09:19:01.028Z,48.57
2022-08-05T09:22:22.531Z,48.97
2022-08-05T09:24:24.265Z,48.99
2022-08-05T09:26:57.067Z,48.79
2022-08-05T09:29:47.501Z,46.17
2022-08-05T09:32:51.333Z,46.28
2022-08-05T09:35:11.581Z,46.53
2022-08-05T09:38:16.513Z,45.67
2022-08-05T09:40:52.279Z,45.84
2022-08-05T09:43:40.951Z,46.33
2022-08-05T09:46:27.798Z,46.96
2022-08-05T09:49:06.822Z,45.43
2022-08-05T09:51:39.975Z,44.38
2022-08-05T09:54:09.575Z,45.67
2022-08-05T09:56:39.374Z,43.09
2022-08-05T09:59:09.446Z,42.92
2022-08-05T10:01:45.750Z,42.74
2022-08-05T10:04:17.503Z,42.96
2022-08-05T10:06:58.949Z,42.11
2022-08-05T10:09:29.541Z,42.16
2022-08-05T10:12:30.436Z,42.41
2022-08-05T10:15:16.440Z,40.65
2022-08-05T10:17:56.631Z,40.24
2022-08-05T10:20:26.599Z,38.86
2022-08-05T10:22:58.456Z,38.39
2022-08-05T10:25:26.474Z,38.30
2022-08-05T10:28:13.290Z,40.39
2022-08-05T10:32:50.604Z,41.07
2022-08-05T10:33:35.092Z,38.43
2022-08-05T10:36:04.918Z,40.24
2022-08-05T10:38:36.032Z,40.77
2022-08-05T10:41:13.677Z,38.98
2022-08-05T10:43:50.145Z,39.26
2022-08-05T10:46:23.984Z,39.27
2022-08-05T10:49:00.508Z,41.81
2022-08-05T10:51:48.670Z,39.63
2022-08-05T10:54:56.232Z,38.72
2022-08-05T10:57:29.693Z,38.82
2022-08-05T11:00:18.162Z,38.81
2022-08-05T11:03:24.676Z,36.63
2022-08-05T11:06:05.529Z,37.21
2022-08-05T11:08:37.158Z,37.37
2022-08-05T11:11:52.403Z,37.86
2022-08-05T11:14:49.421Z,37.72
2022-08-05T11:17:57.418Z,38.38
2022-08-05T11:20:41.585Z,41.42
2022-08-05T11:24:03.952Z,39.37
2022-08-05T11:26:32.199Z,38.68
2022-08-05T11:29:06.926Z,38.85
2022-08-05T11:31:58.376Z,37.99
2022-08-05T11:34:51.709Z,38.19
2022-08-05T11:38:30.406Z,37.37
2022-08-05T11:41:12.829Z,38.11
2022-08-05T11:44:04.699Z,39.44
2022-08-05T11:46:58.366Z,38.97
2022-08-05T11:49:26.620Z,37.84
2022-08-05T11:51:57.580Z,38.28
2022-08-05T11:54:33.113Z,37.67
2022-08-05T11:57:08.482Z,41.21
2022-08-05T11:59:52.542Z,41.26
2022-08-05T12:02:31.154Z,39.53
2022-08-05T12:05:08.191Z,39.17
2022-08-05T12:08:08.133Z,39.34
2022-08-05T12:10:45.550Z,39.21
2022-08-05T12:13:28.345Z,38.73
2022-08-05T12:16:15.484Z,39.03
2022-08-05T12:18:52.316Z,37.97
2022-08-05T12:21:24.244Z,38.51
2022-08-05T12:24:04.505Z,39.26
2022-08-05T12:26:34.236Z,40.95
2022-08-05T12:29:03.194Z,41.71
2022-08-05T12:31:44.908Z,40.12
2022-08-05T12:34:21.269Z,40.39
2022-08-05T12:36:53.245Z,40.69
2022-08-05T12:39:21.433Z,40.60
2022-08-05T12:41:49.221Z,39.75
2022-08-05T12:44:33.259Z,40.76
2022-08-05T12:47:03.789Z,40.85
2022-08-05T12:50:04.197Z,40.27
2022-08-05T12:52:39.247Z,41.73
2022-08-05T12:55:23.603Z,41.20
2022-08-05T12:58:51.004Z,41.57
2022-08-05T13:02:00.355Z,40.88
2022-08-05T13:03:42.526Z,41.15
2022-08-05T13:06:18.135Z,41.19
2022-08-05T13:08:52.027Z,40.72
2022-08-05T13:11:25.429Z,41.29
2022-08-05T13:14:19.864Z,40.04
2022-08-05T13:16:54.099Z,41.24
2022-08-05T13:19:25.927Z,41.49
2022-08-05T13:21:56.737Z,40.75
2022-08-05T13:24:27.546Z,40.73
2022-08-05T13:27:17.148Z,40.42
2022-08-05T13:30:31.668Z,40.34
2022-08-05T13:32:42.266Z,39.79
2022-08-05T13:35:15.316Z,41.82
2022-08-05T13:37:55.586Z,42.21
2022-08-05T13:40:36.801Z,43.23
2022-08-05T13:43:12.082Z,43.18
2022-08-05T13:45:43.282Z,42.72
2022-08-05T13:48:58.870Z,42.41
2022-08-05T13:51:06.690Z,41.15
2022-08-05T13:53:47.969Z,41.68
2022-08-05T13:56:18.206Z,41.53
2022-08-05T13:58:52.983Z,41.19
2022-08-05T14:01:27.358Z,41.34
2022-08-05T14:04:26.960Z,42.26
2022-08-05T14:07:11.901Z,40.86
2022-08-05T14:09:46.525Z,40.97
2022-08-05T14:12:18.328Z,40.60
2022-08-05T14:15:01.404Z,41.82
2022-08-05T14:17:49.228Z,40.02
2022-08-05T14:20:18.403Z,40.56
2022-08-05T14:22:49.936Z,40.58
2022-08-05T14:25:22.512Z,39.92
2022-08-05T14:27:55.702Z,41.11
2022-08-05T14:30:26.701Z,43.52
2022-08-05T14:32:56.907Z,41.81
2022-08-05T14:35:37.111Z,42.63
2022-08-05T14:38:33.126Z,42.66
2022-08-05T14:41:06.335Z,42.76
2022-08-05T14:43:59.160Z,43.64
2022-08-05T14:46:28.124Z,42.10
2022-08-05T14:48:57.890Z,42.84
2022-08-05T14:51:30.895Z,43.16
2022-08-05T14:54:26.319Z,44.74
2022-08-05T14:56:47.969Z,44.19
2022-08-05T14:59:16.405Z,42.34
2022-08-05T15:01:48.055Z,42.17
2022-08-05T15:04:17.162Z,40.96
2022-08-05T15:06:49.219Z,42.12
2022-08-05T15:09:50.511Z,40.60
2022-08-05T15:12:08.971Z,40.45
2022-08-05T15:14:42.205Z,40.39
2022-08-05T15:17:46.222Z,39.17
2022-08-05T15:20:05.897Z,38.50
2022-08-05T15:22:33.641Z,38.86
2022-08-05T15:25:14.121Z,40.90
2022-08-05T15:27:51.975Z,40.37
2022-08-05T15:30:20.350Z,39.71
2022-08-05T15:32:50.234Z,40.06
2022-08-05T15:35:18.706Z,38.38
2022-08-05T15:38:32.421Z,39.77
2022-08-05T15:41:03.178Z,38.71
2022-08-05T15:43:26.936Z,41.10
2022-08-05T15:45:59.765Z,42.40
2022-08-05T15:48:28.894Z,42.37
2022-08-05T15:51:03.326Z,41.32
2022-08-05T15:53:38.375Z,41.38
2022-08-05T15:56:19.218Z,41.12
2022-08-05T15:58:48.923Z,40.00
2022-08-05T16:01:18.667Z,40.62
2022-08-05T16:03:48.524Z,42.05
2022-08-05T16:06:20.222Z,41.35
2022-08-05T16:08:51.084Z,41.70
2022-08-05T16:11:42.469Z,42.57
2022-08-05T16:14:10.218Z,42.53
2022-08-05T16:16:46.115Z,42.90
2022-08-05T16:19:25.838Z,43.08
2022-08-05T16:22:03.008Z,43.30
2022-08-05T16:24:41.191Z,45.01
2022-08-05T16:27:19.223Z,46.34
2022-08-05T16:30:01.382Z,46.36
2022-08-05T16:32:29.934Z,46.34
2022-08-05T16:34:58.864Z,46.36
2022-08-05T16:38:13.696Z,45.42
2022-08-05T16:40:29.229Z,45.13
2022-08-05T16:42:58.070Z,45.69
2022-08-05T16:46:04.125Z,45.85
2022-08-05T16:48:25.483Z,46.24
2022-08-05T16:50:54.260Z,46.27
2022-08-05T16:53:32.553Z,46.81
2022-08-05T16:56:11.724Z,47.23
2022-08-05T16:58:40.731Z,47.72
2022-08-05T17:01:10.808Z,47.92
2022-08-05T17:03:38.866Z,47.78
2022-08-05T17:06:07.718Z,47.79
2022-08-05T17:08:52.264Z,48.04
2022-08-05T17:11:23.523Z,49.77
2022-08-05T17:14:00.504Z,51.01
2022-08-05T17:16:37.086Z,51.25
2022-08-05T17:19:07.785Z,52.17
2022-08-05T17:21:39.617Z,51.98
2022-08-05T17:24:19.411Z,52.40
2022-08-05T17:26:58.340Z,52.58
2022-08-05T17:29:33.250Z,52.95
2022-08-05T17:32:03.451Z,53.44
2022-08-05T17:34:34.789Z,53.65
2022-08-05T17:37:04.595Z,53.79
2022-08-05T17:39:33.965Z,53.24
2022-08-05T17:42:20.355Z,53.00
2022-08-05T17:44:51.595Z,53.15
2022-08-05T17:47:22.177Z,53.72
2022-08-05T17:49:52.095Z,53.94
2022-08-05T17:52:29.141Z,53.88
2022-08-05T17:54:56.990Z,53.70
2022-08-05T17:57:24.992Z,54.27
2022-08-05T18:00:04.982Z,54.60
2022-08-05T18:02:35.225Z,54.91
2022-08-05T18:05:06.918Z,55.30
2022-08-05T18:07:42.035Z,55.85
2022-08-05T18:10:11.581Z,56.19
2022-08-05T18:12:41.856Z,57.31
2022-08-05T18:15:10.811Z,58.15
2022-08-05T18:17:58.855Z,57.61
2022-08-05T18:20:31.541Z,58.07
2022-08-05T18:23:09.509Z,58.27
2022-08-05T18:25:44.977Z,58.29
2022-08-05T18:28:16.437Z,58.57
2022-08-05T18:30:45.348Z,59.03
2022-08-05T18:33:14.779Z,59.74
2022-08-05T18:36:01.154Z,59.62
2022-08-05T18:38:54.159Z,60.31
2022-08-05T18:41:53.758Z,59.93
2022-08-05T18:44:10.844Z,60.03
2022-08-05T18:46:41.299Z,59.17
2022-08-05T18:49:30.728Z,59.40
2022-08-05T18:52:35.733Z,59.04
2022-08-05T18:55:10.371Z,59.30
2022-08-05T18:57:50.209Z,59.51
2022-08-05T19:00:28.826Z,58.23
2022-08-05T19:03:04.171Z,58.03
2022-08-05T19:06:13.369Z,57.42
2022-08-05T19:08:22.215Z,56.96
2022-08-05T19:11:04.522Z,56.83
2022-08-05T19:13:35.874Z,57.10
2022-08-05T19:16:24.555Z,57.21
2022-08-05T19:18:53.850Z,59.65
2022-08-05T19:21:27.595Z,61.78
2022-08-05T19:24:06.563Z,60.11
2022-08-05T19:26:36.951Z,60.90
2022-08-05T19:29:26.736Z,64.11
2022-08-05T19:32:08.633Z,65.90
2022-08-05T19:34:39.426Z,67.00
2022-08-05T19:37:09.942Z,67.09
2022-08-05T19:39:50.531Z,66.71
2022-08-05T19:42:34.888Z,69.92
2022-08-05T19:45:02.916Z,71.46
2022-08-05T19:47:34.106Z,71.04
2022-08-05T19:50:01.834Z,71.29
2022-08-05T19:52:32.479Z,72.18
2022-08-05T19:55:07.254Z,73.50
2022-08-05T19:57:49.104Z,74.41
2022-08-05T20:00:25.098Z,74.46
2022-08-05T20:02:53.410Z,72.03
2022-08-05T20:05:24.080Z,73.37
2022-08-05T20:07:58.844Z,68.76
2022-08-05T20:10:27.747Z,68.87
2022-08-05T20:12:56.635Z,71.69
2022-08-05T20:15:51.779Z,74.05
2022-08-05T20:18:33.622Z,75.29
2022-08-05T20:21:01.483Z,72.62
2022-08-05T20:23:40.737Z,70.50
2022-08-05T20:26:18.382Z,71.05
2022-08-05T20:28:48.339Z,74.19
2022-08-05T20:31:16.643Z,74.24
2022-08-05T20:33:45.892Z,74.57
2022-08-05T20:36:16.201Z,72.45
2022-08-05T20:38:54.007Z,71.98
2022-08-05T20:41:43.931Z,72.09
2022-08-05T20:44:17.111Z,71.65
2022-08-05T20:46:45.695Z,72.10
2022-08-05T20:49:14.443Z,73.26
2022-08-05T20:51:46.158Z,72.19
2022-08-05T20:54:24.755Z,74.90
2022-08-05T20:56:52.951Z,76.38
2022-08-05T20:59:27.145Z,80.73
2022-08-05T21:02:09.063Z,81.65
2022-08-05T21:04:39.476Z,81.99
2022-08-05T21:07:08.962Z,83.67
2022-08-05T21:09:38.387Z,85.27
2022-08-05T21:12:21.530Z,84.93
2022-08-05T21:14:54.225Z,85.66
2022-08-05T21:17:25.620Z,85.37
2022-08-05T21:19:56.067Z,85.56
2022-08-05T21:22:26.848Z,85.21
2022-08-05T21:24:57.514Z,85.54
2022-08-05T21:27:27.362Z,85.69
2022-08-05T21:29:56.001Z,86.35
2022-08-05T21:32:27.235Z,85.53
2022-08-05T21:35:17.746Z,85.67
2022-08-05T21:37:52.742Z,84.46
2022-08-05T21:40:23.356Z,83.53
2022-08-05T21:42:51.984Z,83.38
2022-08-05T21:45:24.450Z,84.00
2022-08-05T21:47:55.797Z,84.16
2022-08-05T21:50:25.303Z,84.16
2022-08-05T21:52:52.981Z,85.01
2022-08-05T21:56:01.478Z,85.89
2022-08-05T21:58:11.720Z,87.08
2022-08-05T22:00:40.434Z,89.53
2022-08-05T22:03:09.768Z,90.03
2022-08-05T22:05:48.673Z,89.68
2022-08-05T22:08:22.160Z,88.96
2022-08-05T22:10:53.575Z,88.49
2022-08-05T22:14:05.986Z,88.06
2022-08-05T22:16:41.066Z,88.18
2022-08-05T22:18:58.503Z,87.99
2022-08-05T22:21:27.058Z,87.90
2022-08-05T22:24:40.515Z,88.65
2022-08-05T22:27:19.360Z,88.61
2022-08-05T22:29:48.733Z,87.59
2022-08-05T22:32:23.107Z,87.74
2022-08-05T22:34:51.805Z,87.03
2022-08-05T22:37:19.450Z,88.65
2022-08-05T22:39:50.490Z,88.54
2022-08-05T22:42:25.397Z,88.80
2022-08-05T22:44:56.682Z,87.31
2022-08-05T22:47:29.170Z,86.81
2022-08-05T22:50:20.849Z,87.09
2022-08-05T22:52:48.063Z,87.25
2022-08-05T22:55:18.960Z,88.44
2022-08-05T22:57:49.060Z,87.78
2022-08-05T23:00:21.236Z,88.43
2022-08-05T23:02:50.268Z,89.37
2022-08-05T23:05:18.990Z,89.63
2022-08-05T23:07:50.947Z,89.46
2022-08-05T23:10:20.035Z,89.70
2022-08-05T23:12:51.496Z,90.43
2022-08-05T23:15:27.136Z,90.76
2022-08-05T23:18:02.159Z,91.25
2022-08-05T23:20:32.123Z,91.23
2022-08-05T23:23:00.825Z,92.24
2022-08-05T23:25:54.520Z,91.25
2022-08-05T23:28:28.594Z,92.35
2022-08-05T23:31:02.357Z,94.47
2022-08-05T23:34:04.557Z,95.98
2022-08-05T23:36:39.728Z,93.67
2022-08-05T23:39:12.862Z,93.70
2022-08-05T23:41:48.454Z,92.93
2022-08-05T23:44:17.396Z,94.32
2022-08-05T23:46:49.332Z,94.82
2022-08-05T23:49:23.883Z,94.23
2022-08-05T23:52:19.635Z,94.16
2022-08-05T23:54:50.886Z,93.44
2022-08-05T23:57:19.410Z,92.71
